Terminal Aerodrome Forecast
Issued by NWS

Home | Current Version | Previous Version | Text Only | Print | Product List | Glossary On
Versions: 1 2 3 4 5 6 7 8 9 10 11 12 13 14 15 16 17 18 19 20 21 22 23 24 25 26 27 28 29 30
000
FTUS41 KCAR 160530
TAFPQI
TAF
KPQI 160530Z 1606/1706 18004KT P6SM SCT025
     FM161200 17006KT 3SM -SN OVC020
     FM161600 19011G18KT P6SM VCSH OVC025
      TEMPO 1620/1624 1SM -SHSN OVC015
     FM170100 28011G20KT P6SM BKN050=

USA.gov is the U.S. government's official web portal to all federal, state and local government web resources and services.